Time;durP1;ratioP1;P1;durP2;ratioP2;P2;SDS_P1;SDS_P2;PMS_P1;PMS_P2;Temp;Humidity;BMP_temperature;BMP_pressure;BME280_temperature;BME280_humidity;BME280_pressure;Samples;Min_cycle;Max_cycle;Signal;HPM_P1;HPM_P2
2023/10/24 00:00:35;;;;;;;4.8;1.4;;;;;;;16.83;54.84863;929.6246;;;;
2023/10/24 00:03:00;;;;;;;5;1.4;;;;;;;16.8;55.76074;929.6149;;;;
2023/10/24 00:05:25;;;;;;;6;1.3;;;;;;;16.75;56.03125;929.5975;;;;
2023/10/24 00:07:50;;;;;;;3.5;0.9;;;;;;;16.68;56.64746;929.6865;;;;
2023/10/24 00:10:20;;;;;;;4.7;1.2;;;;;;;16.51;57.27441;929.6672;;;;
2023/10/24 00:12:48;;;;;;;6.1;1.5;;;;;;;16.37;58.8418;929.6627;;;;
2023/10/24 00:15:13;;;;;;;4.8;1.3;;;;;;;16.3;58.27734;929.8211;;;;
2023/10/24 00:17:39;;;;;;;4.9;1.4;;;;;;;16.35;57.25293;929.8392;;;;
2023/10/24 00:20:06;;;;;;;4.8;1.3;;;;;;;16.46;56.51563;929.8262;;;;
2023/10/24 00:22:32;;;;;;;3.4;1.1;;;;;;;16.58;56.23047;929.8533;;;;
2023/10/24 00:24:57;;;;;;;4.8;1.1;;;;;;;16.63;55.87793;929.767;;;;
2023/10/24 00:27:23;;;;;;;6.5;1.8;;;;;;;16.61;56.62793;929.7433;;;;
2023/10/24 00:29:48;;;;;;;6.2;1.6;;;;;;;16.56;58.0459;929.8625;;;;
2023/10/24 00:32:15;;;;;;;4.6;1.6;;;;;;;16.41;57.35547;929.8655;;;;
2023/10/24 00:34:40;;;;;;;6.9;1.6;;;;;;;16.24;57.96875;929.9511;;;;
2023/10/24 00:37:07;;;;;;;3.9;1.3;;;;;;;16.19;58.72461;929.8133;;;;
2023/10/24 00:39:32;;;;;;;2.8;0.7;;;;;;;16.16;58.99805;929.8743;;;;
2023/10/24 00:42:02;;;;;;;3.5;1;;;;;;;16.1;59.91602;929.8925;;;;
2023/10/24 00:44:27;;;;;;;3.8;1.1;;;;;;;16.09;59.99609;929.8847;;;;
2023/10/24 00:46:52;;;;;;;6;1.3;;;;;;;16.01;60.38867;929.8681;;;;
2023/10/24 00:49:17;;;;;;;3.1;1;;;;;;;15.98;60.99902;929.8767;;;;
2023/10/24 00:51:44;;;;;;;4.7;1;;;;;;;15.87;61.71094;929.8932;;;;
2023/10/24 00:54:09;;;;;;;5.4;1.3;;;;;;;15.8;62.69531;929.827;;;;
2023/10/24 00:56:35;;;;;;;4.4;1.4;;;;;;;15.64;63.41113;929.8342;;;;
2023/10/24 00:59:00;;;;;;;4.2;0.9;;;;;;;15.59;63.73828;929.8761;;;;
2023/10/24 01:01:27;;;;;;;4.1;1.1;;;;;;;15.57;63.99023;929.8714;;;;
2023/10/24 01:03:53;;;;;;;6.6;1.4;;;;;;;15.6;64.20215;929.8502;;;;
2023/10/24 01:06:17;;;;;;;3.9;1.2;;;;;;;15.54;64.93359;929.7043;;;;
2023/10/24 01:08:43;;;;;;;4.7;1.2;;;;;;;15.47;64.92285;929.7581;;;;
2023/10/24 01:11:08;;;;;;;4.8;1.3;;;;;;;15.09;66.80469;929.8583;;;;
2023/10/24 01:13:35;;;;;;;3.2;1;;;;;;;14.94;67.77344;929.7657;;;;
2023/10/24 01:16:00;;;;;;;3.4;1.2;;;;;;;14.78;68.0957;929.7775;;;;
2023/10/24 01:18:28;;;;;;;4.5;1;;;;;;;14.85;66.60645;929.8053;;;;
2023/10/24 01:20:53;;;;;;;3.7;1.2;;;;;;;14.91;66.68457;929.6655;;;;
2023/10/24 01:23:21;;;;;;;7.8;1.6;;;;;;;14.91;67.22656;929.6005;;;;
2023/10/24 01:25:46;;;;;;;5.1;1.2;;;;;;;14.91;67.95313;929.6622;;;;
2023/10/24 01:28:14;;;;;;;3.4;1;;;;;;;14.72;68.07422;929.7475;;;;
2023/10/24 01:30:39;;;;;;;3.6;0.8;;;;;;;14.69;68.12598;929.7089;;;;
2023/10/24 01:33:05;;;;;;;6.2;1.5;;;;;;;14.56;69.23535;929.7623;;;;
2023/10/24 01:35:30;;;;;;;2.9;1.4;;;;;;;14.51;69.74512;929.7739;;;;
2023/10/24 01:37:55;;;;;;;4.1;1.1;;;;;;;14.38;70.37012;929.7886;;;;
2023/10/24 01:40:24;;;;;;;2.3;0.9;;;;;;;14.36;70.71289;929.8369;;;;
2023/10/24 01:42:48;;;;;;;3.4;1.1;;;;;;;14.19;71.77734;929.8415;;;;
2023/10/24 01:45:20;;;;;;;3.8;0.9;;;;;;;14.34;71.11133;929.9439;;;;
2023/10/24 01:47:46;;;;;;;4.8;1.5;;;;;;;14.34;71.04297;929.9559;;;;
2023/10/24 01:50:12;;;;;;;5.7;1.2;;;;;;;14.18;71.62598;929.9057;;;;
2023/10/24 01:52:37;;;;;;;3.6;1.1;;;;;;;14.04;72.54785;929.8201;;;;
2023/10/24 01:55:02;;;;;;;3.3;1.1;;;;;;;13.99;72.85254;929.7381;;;;
2023/10/24 01:57:31;;;;;;;4.7;1;;;;;;;13.9;73.34277;929.6909;;;;
2023/10/24 01:59:56;;;;;;;5.9;1.3;;;;;;;13.86;73.70313;929.7197;;;;
2023/10/24 02:02:26;;;;;;;4.7;1.5;;;;;;;13.85;73.64551;929.7622;;;;
2023/10/24 02:04:51;;;;;;;3.6;1.3;;;;;;;13.62;74.69629;929.8953;;;;
2023/10/24 02:07:16;;;;;;;1.7;1;;;;;;;13.53;75.31445;929.8923;;;;
2023/10/24 02:09:43;;;;;;;3.8;1.1;;;;;;;13.58;74.97754;929.9213;;;;
2023/10/24 02:12:08;;;;;;;4;1.2;;;;;;;13.55;75.16895;929.8897;;;;
2023/10/24 02:14:36;;;;;;;5.9;1.3;;;;;;;13.55;75.41016;929.8176;;;;
2023/10/24 02:17:01;;;;;;;5.6;1.5;;;;;;;13.46;76.17578;929.8574;;;;
2023/10/24 02:19:26;;;;;;;4.4;2.1;;;;;;;13.25;76.75977;929.9443;;;;
2023/10/24 02:21:51;;;;;;;7.1;2.5;;;;;;;12.9;78.09863;929.8475;;;;
2023/10/24 02:24:20;;;;;;;3.3;1.6;;;;;;;13.02;77.92578;929.8486;;;;
2023/10/24 02:26:45;;;;;;;7.7;3.4;;;;;;;13.03;77.60645;929.7885;;;;
2023/10/24 02:29:10;;;;;;;6.9;2.3;;;;;;;13.07;77.33691;929.6961;;;;
2023/10/24 02:31:35;;;;;;;6;2;;;;;;;13.17;76.96387;929.7361;;;;
2023/10/24 02:34:00;;;;;;;5.4;1.8;;;;;;;13.23;76.87207;929.6232;;;;
2023/10/24 02:36:27;;;;;;;3.7;1.8;;;;;;;13.32;76.49707;929.5801;;;;
2023/10/24 02:38:52;;;;;;;5.5;2.2;;;;;;;13.33;76.83008;929.5186;;;;
2023/10/24 02:41:17;;;;;;;5.7;1.6;;;;;;;13.32;76.80762;929.4978;;;;
2023/10/24 02:43:44;;;;;;;5.9;1.9;;;;;;;13.32;77.00098;929.4788;;;;
2023/10/24 02:46:11;;;;;;;7.2;1.7;;;;;;;13.32;76.89746;929.486;;;;
2023/10/24 02:48:41;;;;;;;3.9;1.4;;;;;;;13.13;77.34863;929.4578;;;;
2023/10/24 02:51:06;;;;;;;6.9;1.5;;;;;;;13.12;77.45996;929.5123;;;;
2023/10/24 02:53:32;;;;;;;5.8;2;;;;;;;13.07;78.17578;929.4723;;;;
2023/10/24 02:55:57;;;;;;;5.9;1.6;;;;;;;13.03;78.4541;929.4905;;;;
2023/10/24 02:58:27;;;;;;;4.6;1.6;;;;;;;12.99;78.33301;929.497;;;;
2023/10/24 03:00:52;;;;;;;4.7;2.1;;;;;;;12.82;78.69238;929.501;;;;
2023/10/24 03:03:18;;;;;;;4.3;1.7;;;;;;;12.88;78.69238;929.449;;;;
2023/10/24 03:05:43;;;;;;;3.8;1.5;;;;;;;12.91;78.5918;929.3935;;;;
2023/10/24 03:08:08;;;;;;;7;2;;;;;;;12.87;79.56348;929.4906;;;;
2023/10/24 03:10:35;;;;;;;5.3;1.8;;;;;;;12.97;79.36328;929.5269;;;;
2023/10/24 03:13:02;;;;;;;5.2;1.9;;;;;;;13.04;79.27148;929.4888;;;;
2023/10/24 03:15:31;;;;;;;4.6;2;;;;;;;13.02;78.94824;929.3098;;;;
2023/10/24 03:17:56;;;;;;;6.7;1.7;;;;;;;13.07;78.76074;929.2068;;;;
2023/10/24 03:20:21;;;;;;;3.4;1.4;;;;;;;12.97;79.13184;929.2704;;;;
2023/10/24 03:22:46;;;;;;;5.3;1.8;;;;;;;12.98;79.16992;929.3677;;;;
2023/10/24 03:25:16;;;;;;;3.3;1.5;;;;;;;13;78.97949;929.2707;;;;
2023/10/24 03:27:46;;;;;;;4.7;1.7;;;;;;;13.04;78.67383;929.2338;;;;
2023/10/24 03:30:10;;;;;;;4.1;1.4;;;;;;;12.91;79.36328;929.3384;;;;
2023/10/24 03:32:38;;;;;;;3.6;1.4;;;;;;;12.84;79.82031;929.2699;;;;
2023/10/24 03:35:03;;;;;;;3.3;1.4;;;;;;;12.85;80.08789;929.0787;;;;
2023/10/24 03:37:34;;;;;;;6.1;1.3;;;;;;;12.95;79.55469;929.0389;;;;
2023/10/24 03:40:02;;;;;;;3.6;1.2;;;;;;;12.94;79.63379;929.0471;;;;
2023/10/24 03:42:26;;;;;;;5.4;1.1;;;;;;;12.95;79.57813;928.979;;;;
2023/10/24 03:44:53;;;;;;;2.9;1.5;;;;;;;12.94;79.27637;928.9688;;;;
2023/10/24 03:47:18;;;;;;;4;1.5;;;;;;;12.88;79.38086;929.0239;;;;
2023/10/24 03:49:44;;;;;;;2.9;1.3;;;;;;;12.83;79.6582;929.012;;;;
2023/10/24 03:52:09;;;;;;;4.5;1.7;;;;;;;12.89;79.68262;929.0078;;;;
2023/10/24 03:54:41;;;;;;;4.7;2;;;;;;;12.89;79.7373;928.9927;;;;
2023/10/24 03:57:07;;;;;;;7.8;2.3;;;;;;;12.95;79.45117;928.975;;;;
2023/10/24 03:59:32;;;;;;;4.1;1.7;;;;;;;12.98;79.50293;928.8452;;;;
2023/10/24 04:02:36;;;;;;;4.1;1.6;;;;;;;13.02;79.34863;928.7665;;;;
2023/10/24 04:05:01;;;;;;;4.2;2;;;;;;;12.97;79.49902;928.7734;;;;
2023/10/24 04:07:26;;;;;;;4.8;1.7;;;;;;;12.87;79.79297;928.7405;;;;
2023/10/24 04:09:54;;;;;;;4.3;2.1;;;;;;;12.84;80.02734;928.7913;;;;
2023/10/24 04:12:19;;;;;;;3.7;2;;;;;;;12.78;80.33691;928.6233;;;;
2023/10/24 04:14:45;;;;;;;6.8;2.5;;;;;;;12.85;80.29395;928.5994;;;;
2023/10/24 04:17:09;;;;;;;4.7;1.9;;;;;;;12.91;80.12109;928.473;;;;
2023/10/24 04:19:38;;;;;;;6;2;;;;;;;12.89;80.19922;928.423;;;;
2023/10/24 04:22:04;;;;;;;3.4;1.4;;;;;;;12.88;80.35645;928.364;;;;
2023/10/24 04:24:29;;;;;;;8;1.7;;;;;;;12.91;80.7041;928.3756;;;;
2023/10/24 04:26:55;;;;;;;3.7;1.6;;;;;;;12.89;81.16211;928.3903;;;;
2023/10/24 04:29:22;;;;;;;4.3;1.8;;;;;;;12.79;81.17773;928.3444;;;;
2023/10/24 04:31:47;;;;;;;3.5;1.4;;;;;;;12.78;81.3584;928.3462;;;;
2023/10/24 04:34:15;;;;;;;9.2;1.8;;;;;;;12.73;81.83203;928.3045;;;;
2023/10/24 04:36:41;;;;;;;5;2.9;;;;;;;12.7;81.84961;928.2643;;;;
2023/10/24 04:39:10;;;;;;;3.6;1.7;;;;;;;12.68;81.96094;928.0825;;;;
2023/10/24 04:41:43;;;;;;;6.6;1.7;;;;;;;12.71;81.76074;928.0173;;;;
2023/10/24 04:44:12;;;;;;;5;1.5;;;;;;;12.69;82.06445;928.0264;;;;
2023/10/24 04:46:44;;;;;;;4.2;1.9;;;;;;;12.69;81.85742;927.9705;;;;
2023/10/24 04:49:08;;;;;;;3.5;1.4;;;;;;;12.72;81.55469;927.9302;;;;
2023/10/24 04:51:35;;;;;;;2.6;1.6;;;;;;;12.77;81.15137;927.9972;;;;
2023/10/24 04:54:01;;;;;;;2.3;1.2;;;;;;;12.83;81.17285;928.0502;;;;
2023/10/24 04:56:29;;;;;;;3.1;1.5;;;;;;;12.95;80.65723;928.1082;;;;
2023/10/24 04:58:56;;;;;;;5.1;1.6;;;;;;;12.88;81.35547;928.0189;;;;
2023/10/24 05:01:21;;;;;;;5.9;2;;;;;;;12.91;81.5;927.9193;;;;
2023/10/24 05:03:46;;;;;;;6.8;2.1;;;;;;;12.99;81.43359;927.8045;;;;
2023/10/24 05:06:14;;;;;;;5.6;1.9;;;;;;;13.01;81.62012;927.8714;;;;
2023/10/24 05:08:39;;;;;;;6;2.2;;;;;;;13.01;81.44824;927.853;;;;
2023/10/24 05:11:06;;;;;;;7.4;2.1;;;;;;;13.03;81.46289;927.8203;;;;
2023/10/24 05:13:31;;;;;;;5.8;1.8;;;;;;;12.96;81.86426;927.7531;;;;
2023/10/24 05:15:59;;;;;;;6.8;1.9;;;;;;;12.99;81.19238;927.7486;;;;
2023/10/24 05:18:24;;;;;;;5.5;2.7;;;;;;;12.97;81.29004;927.7954;;;;
2023/10/24 05:20:50;;;;;;;4.2;2;;;;;;;12.89;81.68848;927.7495;;;;
2023/10/24 05:23:16;;;;;;;4.3;1.7;;;;;;;12.78;82.30078;927.6959;;;;
2023/10/24 05:25:43;;;;;;;6.1;2;;;;;;;12.77;82.33398;927.6378;;;;
2023/10/24 05:28:08;;;;;;;5.1;2;;;;;;;12.8;82.75195;927.5519;;;;
2023/10/24 05:30:33;;;;;;;8;2.2;;;;;;;12.78;82.81543;927.5553;;;;
2023/10/24 05:32:59;;;;;;;4.2;2.4;;;;;;;12.86;82.33984;927.5071;;;;
2023/10/24 05:35:27;;;;;;;6;2.3;;;;;;;12.95;81.91992;927.4984;;;;
2023/10/24 05:37:52;;;;;;;4;2;;;;;;;12.86;82.25879;927.5198;;;;
2023/10/24 05:40:19;;;;;;;6.8;2;;;;;;;12.78;82.88672;927.437;;;;
2023/10/24 05:42:44;;;;;;;5.6;2.2;;;;;;;12.82;82.8125;927.3697;;;;
2023/10/24 05:45:09;;;;;;;8.4;2.4;;;;;;;12.8;83.07324;927.3233;;;;
2023/10/24 05:47:35;;;;;;;5.7;2;;;;;;;12.84;82.8623;927.2798;;;;
2023/10/24 05:50:00;;;;;;;4.9;1.8;;;;;;;12.92;83.16504;927.2952;;;;
2023/10/24 05:52:28;;;;;;;6.8;2.3;;;;;;;12.88;83.04102;927.3135;;;;
2023/10/24 05:54:54;;;;;;;6.4;2;;;;;;;12.96;82.65527;927.332;;;;
2023/10/24 05:57:23;;;;;;;6.2;1.9;;;;;;;13;82.44727;927.3625;;;;
2023/10/24 05:59:46;;;;;;;5.2;2;;;;;;;13.14;82.50684;927.2172;;;;
2023/10/24 06:02:15;;;;;;;5.3;2.2;;;;;;;13.2;82.12891;927.2547;;;;
2023/10/24 06:04:40;;;;;;;6.4;2;;;;;;;13.15;82.36914;927.2819;;;;
2023/10/24 06:07:07;;;;;;;3.7;1.6;;;;;;;13.26;82.24219;927.29;;;;
2023/10/24 06:09:31;;;;;;;3;1.5;;;;;;;13.3;81.90625;927.2277;;;;
2023/10/24 06:11:59;;;;;;;3.1;1.3;;;;;;;13.31;81.78125;927.1259;;;;
2023/10/24 06:14:24;;;;;;;5.6;1.7;;;;;;;13.39;81.2666;927.0613;;;;
2023/10/24 06:16:50;;;;;;;3.7;1.5;;;;;;;13.37;81.51563;927.0176;;;;
2023/10/24 06:19:15;;;;;;;3.7;1.4;;;;;;;13.33;81.56445;927.0673;;;;
2023/10/24 06:21:41;;;;;;;4;1.4;;;;;;;13.29;81.9375;927.0872;;;;
2023/10/24 06:24:07;;;;;;;3.2;1.4;;;;;;;13.19;82.31055;927.1845;;;;
2023/10/24 06:26:34;;;;;;;6.3;1.7;;;;;;;13.02;83.11523;927.1124;;;;
2023/10/24 06:28:59;;;;;;;7.4;2.2;;;;;;;13.02;83.19531;927.022;;;;
2023/10/24 06:31:28;;;;;;;5.4;2;;;;;;;13.13;82.91699;927.1624;;;;
2023/10/24 06:33:53;;;;;;;4.6;1.8;;;;;;;13.15;82.7832;927.1443;;;;
2023/10/24 06:36:18;;;;;;;5.9;2.2;;;;;;;13.15;82.78418;926.9805;;;;
2023/10/24 06:38:46;;;;;;;5.4;2;;;;;;;13.23;82.55859;927.0299;;;;
2023/10/24 06:41:13;;;;;;;5.7;2.5;;;;;;;13.27;82.12695;927.1213;;;;
2023/10/24 06:43:37;;;;;;;5.8;1.8;;;;;;;13.28;81.61328;927.1786;;;;
2023/10/24 06:46:06;;;;;;;5.4;2.1;;;;;;;13.29;81.63867;927.235;;;;
2023/10/24 06:48:31;;;;;;;4.2;1.7;;;;;;;13.26;82.19629;927.0302;;;;
2023/10/24 06:51:02;;;;;;;8;2.4;;;;;;;13.38;81.9209;927.0414;;;;
2023/10/24 06:53:26;;;;;;;4.5;2.9;;;;;;;13.44;81.67871;926.959;;;;
2023/10/24 06:56:01;;;;;;;5.2;1.9;;;;;;;13.46;82.0957;926.8234;;;;
2023/10/24 06:58:30;;;;;;;3.9;1.7;;;;;;;13.48;82.45605;926.9998;;;;
2023/10/24 07:01:04;;;;;;;5.3;1.7;;;;;;;13.53;82.20117;927.0748;;;;
2023/10/24 07:03:29;;;;;;;5;2.2;;;;;;;13.48;81.83496;926.9047;;;;
2023/10/24 07:05:54;;;;;;;6.3;2.1;;;;;;;13.39;82.3584;926.9333;;;;
2023/10/24 07:08:20;;;;;;;3.8;2.2;;;;;;;13.39;82.32324;926.8789;;;;
2023/10/24 07:10:45;;;;;;;4.9;2.3;;;;;;;13.39;82.44043;926.8253;;;;
2023/10/24 07:13:11;;;;;;;6.2;1.9;;;;;;;13.42;82.97461;926.8019;;;;
2023/10/24 07:15:35;;;;;;;5.2;2.5;;;;;;;13.46;82.72852;926.8058;;;;
2023/10/24 07:18:05;;;;;;;5.1;2.1;;;;;;;13.46;82.54395;926.8187;;;;
2023/10/24 07:20:33;;;;;;;6.9;2.8;;;;;;;13.38;82.80664;926.9342;;;;
2023/10/24 07:22:58;;;;;;;7;3.2;;;;;;;13.41;82.98438;926.8417;;;;
2023/10/24 07:25:26;;;;;;;9;5;;;;;;;13.53;82.76465;926.7053;;;;
2023/10/24 07:27:51;;;;;;;5.2;3.2;;;;;;;13.6;82.04102;926.7142;;;;
2023/10/24 07:30:22;;;;;;;6.2;3.1;;;;;;;13.71;82.14355;926.6627;;;;
2023/10/24 07:32:47;;;;;;;7.3;3;;;;;;;13.69;82.37012;926.6063;;;;
2023/10/24 07:35:17;;;;;;;6.9;3.4;;;;;;;13.52;82.87598;926.5528;;;;
2023/10/24 07:37:48;;;;;;;6;2.8;;;;;;;13.62;82.22852;926.5045;;;;
2023/10/24 07:40:21;;;;;;;6.1;2.4;;;;;;;13.61;81.99805;926.4132;;;;
2023/10/24 07:42:46;;;;;;;5.6;2.8;;;;;;;13.75;82.54102;926.4226;;;;
2023/10/24 07:45:15;;;;;;;5.6;2.5;;;;;;;13.86;81.73535;926.5492;;;;
2023/10/24 07:47:40;;;;;;;6.9;3;;;;;;;13.95;80.77441;926.6272;;;;
2023/10/24 07:50:08;;;;;;;11.1;3.2;;;;;;;14.01;80.49609;926.6876;;;;
2023/10/24 07:52:33;;;;;;;9.5;4.5;;;;;;;13.99;80.13672;926.5656;;;;
2023/10/24 07:55:00;;;;;;;5.3;2.4;;;;;;;13.99;79.96387;926.6047;;;;
2023/10/24 07:57:25;;;;;;;6.8;2.7;;;;;;;13.97;80.08691;926.558;;;;
2023/10/24 07:59:52;;;;;;;5.3;3.1;;;;;;;13.96;80.65918;926.6088;;;;
2023/10/24 08:02:17;;;;;;;6.3;2.7;;;;;;;13.92;81.10156;926.5622;;;;
2023/10/24 08:04:42;;;;;;;5.6;2.5;;;;;;;13.98;81.15918;926.6097;;;;
2023/10/24 08:07:11;;;;;;;5.6;2.6;;;;;;;14.13;79.33203;926.6652;;;;
2023/10/24 08:09:41;;;;;;;9;2.6;;;;;;;14.13;79.57422;926.625;;;;
2023/10/24 08:12:06;;;;;;;9.6;2.9;;;;;;;14.12;79.48242;926.6244;;;;
2023/10/24 08:14:35;;;;;;;7.4;2.8;;;;;;;13.99;80.05566;926.616;;;;
2023/10/24 08:17:03;;;;;;;5.1;2.4;;;;;;;13.99;80.71191;926.5792;;;;
2023/10/24 08:19:27;;;;;;;5.9;2.7;;;;;;;14.09;80.61328;926.6437;;;;
2023/10/24 08:21:52;;;;;;;8.2;2.4;;;;;;;13.99;81.59766;926.6272;;;;
2023/10/24 08:24:21;;;;;;;7.5;2.8;;;;;;;14.11;81.6416;926.6721;;;;
2023/10/24 08:26:45;;;;;;;8.5;3.7;;;;;;;14.2;80.99219;926.6458;;;;
2023/10/24 08:29:13;;;;;;;6.8;3;;;;;;;14.25;80.33398;926.6339;;;;
2023/10/24 08:31:38;;;;;;;7.3;2.8;;;;;;;14.19;80.80566;926.6213;;;;
2023/10/24 08:34:07;;;;;;;5.5;2.4;;;;;;;14.24;81.01172;926.5564;;;;
2023/10/24 08:36:33;;;;;;;6.1;3.1;;;;;;;14.24;81.32324;926.642;;;;
2023/10/24 08:39:01;;;;;;;7.1;3.2;;;;;;;14.26;81.45313;926.5919;;;;
2023/10/24 08:41:27;;;;;;;8.6;3.4;;;;;;;14.14;81.78809;926.4334;;;;
2023/10/24 08:43:56;;;;;;;7.3;2.9;;;;;;;14.26;81.69434;926.4022;;;;
2023/10/24 08:46:22;;;;;;;7.9;3.3;;;;;;;14.39;81.22266;926.363;;;;
2023/10/24 08:48:53;;;;;;;7.8;3.2;;;;;;;14.35;81.03223;926.3143;;;;
2023/10/24 08:51:19;;;;;;;9.1;3.7;;;;;;;14.33;81.70605;926.3317;;;;
2023/10/24 08:53:44;;;;;;;7.1;3;;;;;;;14.43;82.00293;926.3961;;;;
2023/10/24 08:56:17;;;;;;;11;3.2;;;;;;;14.55;81.62012;926.2756;;;;
2023/10/24 08:58:48;;;;;;;8.4;2.9;;;;;;;14.69;81.03613;926.2258;;;;
2023/10/24 09:01:15;;;;;;;5.6;2.7;;;;;;;14.85;79.92676;926.1713;;;;
2023/10/24 09:03:40;;;;;;;5.5;2.6;;;;;;;14.95;80.00098;926.2241;;;;
2023/10/24 09:06:09;;;;;;;8.1;3.1;;;;;;;14.94;79.15723;926.2733;;;;
2023/10/24 09:08:34;;;;;;;5.2;2.1;;;;;;;14.67;79.15234;926.2497;;;;
2023/10/24 09:11:03;;;;;;;6;1.9;;;;;;;14.59;79.87695;926.2441;;;;
2023/10/24 09:13:34;;;;;;;4.1;1.6;;;;;;;14.51;79.98926;926.1292;;;;
2023/10/24 09:15:59;;;;;;;3.9;1.8;;;;;;;14.61;79.8457;926.1227;;;;
2023/10/24 09:18:24;;;;;;;3.4;2.1;;;;;;;14.71;80.60352;926.0497;;;;
2023/10/24 09:20:53;;;;;;;6.4;2.2;;;;;;;14.88;80.70215;925.9703;;;;
2023/10/24 09:23:18;;;;;;;4.2;2.1;;;;;;;15.09;79.80762;925.9191;;;;
2023/10/24 09:25:45;;;;;;;11;2.4;;;;;;;15.15;79.38086;925.8541;;;;
2023/10/24 09:28:10;;;;;;;7.7;2.9;;;;;;;15.2;79.31836;925.7863;;;;
2023/10/24 09:30:36;;;;;;;6.5;2.7;;;;;;;15.33;78.97363;925.7314;;;;
2023/10/24 09:33:04;;;;;;;5.4;3;;;;;;;15.47;78.33008;925.6537;;;;
2023/10/24 09:35:29;;;;;;;8.9;2.9;;;;;;;15.49;77.65137;925.5665;;;;
2023/10/24 09:37:54;;;;;;;9.3;3;;;;;;;15.41;77.87988;925.5638;;;;
2023/10/24 09:40:26;;;;;;;5.2;2.3;;;;;;;15.46;78.19922;925.4623;;;;
2023/10/24 09:42:54;;;;;;;4;2.3;;;;;;;15.51;78.24512;925.4559;;;;
2023/10/24 09:45:20;;;;;;;4.6;2.2;;;;;;;15.6;77.74023;925.358;;;;
2023/10/24 09:47:51;;;;;;;7.3;2.5;;;;;;;15.72;76.98828;925.3491;;;;
2023/10/24 09:50:22;;;;;;;5.9;2.4;;;;;;;15.79;76.54883;925.2162;;;;
2023/10/24 09:52:47;;;;;;;5;2.3;;;;;;;15.68;76.66895;925.2141;;;;
2023/10/24 09:55:17;;;;;;;6.1;2.7;;;;;;;15.75;77.21289;925.1122;;;;
2023/10/24 09:57:52;;;;;;;4;2.2;;;;;;;15.86;76.19141;925.0439;;;;
2023/10/24 10:00:21;;;;;;;7.2;2.5;;;;;;;15.89;75.93262;925.0734;;;;
2023/10/24 10:02:47;;;;;;;10;2.1;;;;;;;15.81;75.89355;925.0783;;;;
2023/10/24 10:05:11;;;;;;;5.4;2.3;;;;;;;15.77;75.89746;924.9648;;;;
2023/10/24 10:07:40;;;;;;;5.4;2.1;;;;;;;15.66;76.08789;925.0066;;;;
2023/10/24 10:10:05;;;;;;;5.9;2;;;;;;;15.66;76.20313;924.9384;;;;
2023/10/24 10:12:35;;;;;;;6.7;2.8;;;;;;;15.76;76.10547;924.9169;;;;
2023/10/24 10:15:00;;;;;;;3.6;2.3;;;;;;;15.72;76.05273;924.9197;;;;
2023/10/24 10:17:26;;;;;;;5.3;2.8;;;;;;;15.51;76.68457;924.9545;;;;
2023/10/24 10:19:50;;;;;;;6.2;2.8;;;;;;;15.5;76.20996;924.9381;;;;
2023/10/24 10:22:17;;;;;;;4.7;2.4;;;;;;;15.57;76.71875;924.9914;;;;
2023/10/24 10:24:43;;;;;;;4.5;2.5;;;;;;;15.56;76.94727;924.8947;;;;
2023/10/24 10:27:09;;;;;;;5.8;2.6;;;;;;;15.62;76.41504;924.9342;;;;
2023/10/24 10:29:39;;;;;;;7.2;2.9;;;;;;;15.59;76.53711;924.9814;;;;
2023/10/24 10:32:09;;;;;;;6.7;2.9;;;;;;;15.43;76.88965;924.9692;;;;
2023/10/24 10:34:35;;;;;;;5.7;3.1;;;;;;;15.47;78.12207;924.9052;;;;
2023/10/24 10:37:06;;;;;;;6.5;3.3;;;;;;;15.58;77.21777;924.9308;;;;
2023/10/24 10:39:31;;;;;;;8.4;3.3;;;;;;;15.69;76.12695;924.9762;;;;
2023/10/24 10:42:04;;;;;;;7.5;3.4;;;;;;;15.7;76.60254;924.9109;;;;
2023/10/24 10:44:29;;;;;;;7.3;3.1;;;;;;;15.78;76.73242;924.9731;;;;
2023/10/24 10:46:56;;;;;;;5.3;2.4;;;;;;;15.89;76.7168;924.9122;;;;
2023/10/24 10:49:21;;;;;;;5.3;2.6;;;;;;;15.94;75.45313;924.9042;;;;
2023/10/24 10:51:48;;;;;;;6.1;2.8;;;;;;;16.05;75.62305;924.9626;;;;
2023/10/24 10:54:17;;;;;;;5.2;2.5;;;;;;;16.02;77.36523;924.9508;;;;
2023/10/24 10:56:41;;;;;;;7.2;2.4;;;;;;;16.05;77.42871;924.9008;;;;
2023/10/24 10:59:07;;;;;;;5;2.3;;;;;;;16.12;77.07031;924.9562;;;;
2023/10/24 11:01:35;;;;;;;4.1;2.4;;;;;;;16.18;77.03516;924.9437;;;;
2023/10/24 11:04:03;;;;;;;8;2.8;;;;;;;16.06;77.47559;924.9462;;;;
2023/10/24 11:06:28;;;;;;;8.6;2.8;;;;;;;15.95;78.39258;924.9102;;;;
2023/10/24 11:08:56;;;;;;;10.2;2.8;;;;;;;16.03;78.48828;924.9063;;;;
2023/10/24 11:11:22;;;;;;;7.7;3;;;;;;;16.05;78.52637;924.9523;;;;
2023/10/24 11:13:48;;;;;;;6.8;3.4;;;;;;;16.08;78.42676;924.9441;;;;
2023/10/24 11:16:15;;;;;;;8.2;3.9;;;;;;;15.99;79.03516;924.9893;;;;
2023/10/24 11:18:40;;;;;;;8.3;2.8;;;;;;;15.9;79.13574;924.9511;;;;
2023/10/24 11:21:05;;;;;;;4.8;2.6;;;;;;;15.84;79.19238;924.8986;;;;
2023/10/24 11:23:34;;;;;;;6.7;2.8;;;;;;;15.7;79.18066;924.9211;;;;
2023/10/24 11:25:59;;;;;;;4.9;2.1;;;;;;;15.71;79.00781;924.9241;;;;
2023/10/24 11:28:29;;;;;;;5.6;2.6;;;;;;;15.67;79.57813;924.8948;;;;
2023/10/24 11:30:56;;;;;;;7.3;2.1;;;;;;;15.64;79.80469;924.8596;;;;
2023/10/24 11:33:21;;;;;;;4.2;1.7;;;;;;;15.55;80.68945;924.9067;;;;
2023/10/24 11:35:52;;;;;;;4.2;1.9;;;;;;;15.42;81.60156;924.8747;;;;
2023/10/24 11:38:17;;;;;;;4.9;1.7;;;;;;;15.38;80.875;924.9705;;;;
2023/10/24 11:40:46;;;;;;;3.7;1.6;;;;;;;15.28;80.74316;925.0439;;;;
2023/10/24 11:43:10;;;;;;;3.4;1.9;;;;;;;14.88;81.69629;925.0325;;;;
2023/10/24 11:45:37;;;;;;;4;1.5;;;;;;;14.89;81.61523;925.0009;;;;
2023/10/24 11:48:08;;;;;;;4.4;1.8;;;;;;;14.74;82.42871;924.9425;;;;
2023/10/24 11:50:35;;;;;;;6.3;1.8;;;;;;;14.55;82.77246;924.8499;;;;
2023/10/24 11:53:00;;;;;;;7;1.8;;;;;;;14.43;82.85547;924.8608;;;;
2023/10/24 11:55:28;;;;;;;16;8.4;;;;;;;14.4;82.69922;924.8052;;;;
2023/10/24 11:57:54;;;;;;;8.1;2.5;;;;;;;14.29;83.61133;924.7632;;;;
2023/10/24 12:00:21;;;;;;;8.4;4.2;;;;;;;14.29;84.12988;924.7128;;;;
2023/10/24 12:02:48;;;;;;;5;1.7;;;;;;;14.13;84.75684;924.807;;;;
2023/10/24 12:05:16;;;;;;;12;3.1;;;;;;;14.14;84.88477;924.8284;;;;
2023/10/24 12:07:45;;;;;;;8.2;1.9;;;;;;;14.33;84.78223;924.7711;;;;
2023/10/24 12:10:19;;;;;;;8;2.2;;;;;;;14.35;83.87695;924.6591;;;;
2023/10/24 12:12:49;;;;;;;5.2;1.9;;;;;;;14.28;84.64648;924.6498;;;;
2023/10/24 12:15:20;;;;;;;5.8;1.5;;;;;;;14.35;84.48535;924.5928;;;;
2023/10/24 12:17:50;;;;;;;4.7;1.7;;;;;;;14.57;84.0459;924.7587;;;;
2023/10/24 12:20:17;;;;;;;6.9;2.6;;;;;;;14.42;84.74219;924.877;;;;
2023/10/24 12:22:46;;;;;;;6.8;2.7;;;;;;;;;;;;;
2023/10/24 12:25:07;;;;;;;5;1.6;;;;;;;;;;;;;
2023/10/24 12:27:36;;;;;;;8.4;3.1;;;;;;;;;;;;;
2023/10/24 12:30:01;;;;;;;10;3.9;;;;;;;;;;;;;
2023/10/24 12:32:26;;;;;;;7.7;2.2;;;;;;;;;;;;;
2023/10/24 12:34:51;;;;;;;7.4;2.6;;;;;;;;;;;;;
2023/10/24 12:37:16;;;;;;;8.3;2.5;;;;;;;;;;;;;
2023/10/24 12:39:41;;;;;;;9.2;3;;;;;;;;;;;;;
2023/10/24 12:42:08;;;;;;;9.9;3.3;;;;;;;;;;;;;
2023/10/24 12:44:33;;;;;;;8.9;1.9;;;;;;;;;;;;;
2023/10/24 12:47:00;;;;;;;6.7;2;;;;;;;;;;;;;
2023/10/24 12:49:24;;;;;;;6;2.1;;;;;;;;;;;;;
2023/10/24 12:51:51;;;;;;;5.7;1.7;;;;;;;;;;;;;
2023/10/24 12:54:17;;;;;;;6.1;2;;;;;;;;;;;;;
2023/10/24 12:56:44;;;;;;;7.9;2.5;;;;;;;;;;;;;
2023/10/24 12:59:10;;;;;;;12.6;3.2;;;;;;;;;;;;;
2023/10/24 13:01:36;;;;;;;7.5;2.3;;;;;;;;;;;;;
2023/10/24 13:04:02;;;;;;;8.7;2.7;;;;;;;;;;;;;
2023/10/24 13:06:30;;;;;;;8.4;2;;;;;;;;;;;;;
2023/10/24 13:08:54;;;;;;;9.3;2.7;;;;;;;;;;;;;
2023/10/24 13:11:21;;;;;;;6.8;3.6;;;;;;;;;;;;;
2023/10/24 13:13:46;;;;;;;15.9;5.5;;;;;;;;;;;;;
2023/10/24 13:16:11;;;;;;;5.9;2.6;;;;;;;;;;;;;
2023/10/24 13:18:37;;;;;;;6.5;2.7;;;;;;;;;;;;;
2023/10/24 13:21:01;;;;;;;7.5;2.8;;;;;;;;;;;;;
2023/10/24 13:23:27;;;;;;;8.3;2.9;;;;;;;;;;;;;
2023/10/24 13:25:53;;;;;;;7.2;2.6;;;;;;;;;;;;;
2023/10/24 13:28:20;;;;;;;8.8;2.5;;;;;;;;;;;;;
2023/10/24 13:30:48;;;;;;;8.8;2.3;;;;;;;;;;;;;
2023/10/24 13:33:11;;;;;;;8.8;2.1;;;;;;;;;;;;;
2023/10/24 13:35:37;;;;;;;7.4;2.4;;;;;;;;;;;;;
2023/10/24 13:38:02;;;;;;;5;2.4;;;;;;;;;;;;;
2023/10/24 13:40:28;;;;;;;8.7;2.4;;;;;;;;;;;;;
2023/10/24 13:42:53;;;;;;;8.4;3;;;;;;;;;;;;;
2023/10/24 13:45:21;;;;;;;6.8;2.2;;;;;;;;;;;;;
2023/10/24 13:47:44;;;;;;;7.6;2.8;;;;;;;;;;;;;
2023/10/24 13:50:14;;;;;;;14;5.2;;;;;;;;;;;;;
2023/10/24 13:52:39;;;;;;;14.9;5.9;;;;;;;;;;;;;
2023/10/24 13:55:05;;;;;;;15.4;6.7;;;;;;;;;;;;;
2023/10/24 13:57:29;;;;;;;6.2;2.2;;;;;;;;;;;;;
2023/10/24 13:59:54;;;;;;;6;2.2;;;;;;;;;;;;;
2023/10/24 14:02:19;;;;;;;5.7;2;;;;;;;;;;;;;
2023/10/24 14:04:46;;;;;;;6.1;2.5;;;;;;;;;;;;;
2023/10/24 14:07:11;;;;;;;7.9;2.4;;;;;;;;;;;;;
2023/10/24 14:09:37;;;;;;;7.7;2.8;;;;;;;;;;;;;
2023/10/24 14:12:03;;;;;;;4.7;2.2;;;;;;;;;;;;;
2023/10/24 14:14:29;;;;;;;7.4;2.8;;;;;;;;;;;;;
2023/10/24 14:16:55;;;;;;;6.9;2.5;;;;;;;;;;;;;
2023/10/24 14:19:19;;;;;;;6.9;3;;;;;;;;;;;;;
2023/10/24 14:21:45;;;;;;;6.4;2.1;;;;;;;;;;;;;
2023/10/24 14:24:11;;;;;;;4.7;2.5;;;;;;;;;;;;;
2023/10/24 14:26:36;;;;;;;5;2.3;;;;;;;;;;;;;
2023/10/24 14:29:03;;;;;;;8.8;2.7;;;;;;;;;;;;;
2023/10/24 14:31:28;;;;;;;6.4;2.8;;;;;;;;;;;;;
2023/10/24 14:33:55;;;;;;;4.3;2.7;;;;;;;;;;;;;
2023/10/24 14:36:19;;;;;;;8.1;3.1;;;;;;;;;;;;;
2023/10/24 14:38:46;;;;;;;5.8;2.8;;;;;;;;;;;;;
2023/10/24 14:41:11;;;;;;;7.5;3.6;;;;;;;;;;;;;
2023/10/24 14:43:37;;;;;;;6.1;2.9;;;;;;;;;;;;;
2023/10/24 14:46:02;;;;;;;8.3;3;;;;;;;;;;;;;
2023/10/24 14:48:28;;;;;;;4.6;2.8;;;;;;;;;;;;;
2023/10/24 14:50:53;;;;;;;4.1;2.8;;;;;;;;;;;;;
2023/10/24 14:53:18;;;;;;;4.9;3;;;;;;;;;;;;;
2023/10/24 14:55:44;;;;;;;4.9;2.9;;;;;;;;;;;;;
2023/10/24 14:58:09;;;;;;;5.6;2.9;;;;;;;;;;;;;
2023/10/24 15:00:34;;;;;;;4;2.6;;;;;;;;;;;;;
2023/10/24 15:03:01;;;;;;;3.6;2.7;;;;;;;;;;;;;
2023/10/24 15:05:25;;;;;;;5.2;2.8;;;;;;;;;;;;;
2023/10/24 15:07:53;;;;;;;3.5;2.8;;;;;;;;;;;;;
2023/10/24 15:10:19;;;;;;;6.4;2.8;;;;;;;;;;;;;
2023/10/24 15:12:45;;;;;;;5.3;2.5;;;;;;;;;;;;;
2023/10/24 15:15:10;;;;;;;3.9;2.5;;;;;;;;;;;;;
2023/10/24 15:17:35;;;;;;;4;2.5;;;;;;;;;;;;;